Apj Shirin — 3EVS6 — position and weather

sailwx.info

Track history (hours):
 
Tides and Currents Weather Stations Pressure Air Temp Water Temp Dewpoint Dewpoint Depression Visibility Wind Speed Wind Dir Waves Ship Positions

Apj Shirin

Last reported at 2017-Jan-16 01:33 UTC. Time now 2017-Jan-16 11:07 UTC.
Position N 51°54' E 003°29'.

Length 189 m; draft 12.2 m.

Type: Cargo ship. MMSI: 373223000.

Date/timePositionNaut miles runAvg speedWind from/ knotsBaromVisibWave heightAir tempDewpointWater temp
2017-Jan-16 01:33N 51°54' E 003°29'0 0.0
2017-Jan-16 00:32N 51°54' E 003°28'43 2.0
2017-Jan-15 02:17N 51°38' E 002°24'811.5
2017-Jan-15 01:33N 51°32' E 002°15'1110.4
2017-Jan-15 00:33N 51°22' E 002°07'9 8.9
2017-Jan-14 23:33N 51°14' E 002°04'8 8.4
2017-Jan-14 22:33N 51°10' E 001°53'7 7.2
2017-Jan-14 21:33N 51°05' E 001°44'7 6.9
2017-Jan-14 20:33N 50°60' E 001°36'7 7.1
2017-Jan-14 19:33N 50°54' E 001°29'65 9.1
2017-Jan-14 12:25N 50°18' E 000°04'1012.0
2017-Jan-14 11:32N 50°16' W 000°12'2813.7
2017-Jan-14 09:29N 50°09' W 000°54'1314.4
2017-Jan-14 08:33N 50°05' W 001°14'1414.0
2017-Jan-14 07:33N 50°01' W 001°35'1312.7
2017-Jan-14 06:33N 49°58' W 001°55'140 9.2
2017-Jan-13 15:26N 48°59' W 005°10'6 6.7
2017-Jan-13 14:33N 48°55' W 005°16'9 8.7
2017-Jan-13 13:32N 48°50' W 005°27'  
2017-Jan-10 14:20N 39°23' W 009°51'8 9.9
2017-Jan-10 13:33N 39°15' W 009°50'1010.0
2017-Jan-10 12:33N 39°05' W 009°51'1010.1
2017-Jan-10 11:33N 38°55' W 009°50'1010.3
2017-Jan-10 10:33N 38°45' W 009°51'1110.6
2017-Jan-10 09:33N 38°34' W 009°49'1211.7
2017-Jan-10 08:33N 38°23' W 009°46'1110.1
2017-Jan-10 07:29N 38°12' W 009°43'910.2
2017-Jan-10 06:33N 38°03' W 009°39'1110.6
2017-Jan-10 05:33N 37°53' W 009°37'1110.6
2017-Jan-10 04:33N 37°42' W 009°34'1210.7
2017-Jan-10 03:24N 37°31' W 009°30'213 8.6
2017-Jan-09 02:28N 35°59' W 005°29'9 9.8
2017-Jan-09 01:33N 36°02' W 005°19'  
Track history (hours):
 
Tides and Currents Weather Stations Pressure Air Temp Water Temp Dewpoint Dewpoint Depression Visibility Wind Speed Wind Dir Waves Ship Positions

Apj Shirin

Last reported at 2017-Jan-16 01:33 UTC. Time now 2017-Jan-16 11:07 UTC.
Position N 51°54' E 003°29'.

Length 189 m; draft 12.2 m.

Type: Cargo ship. MMSI: 373223000.

Date/timePositionNaut miles runAvg speedWind from/ knotsBaromVisibWave heightAir tempDewpointWater temp
2017-Jan-16 01:33N 51°54' E 003°29'0 0.0
2017-Jan-16 00:32N 51°54' E 003°28'43 2.0
2017-Jan-15 02:17N 51°38' E 002°24'811.5
2017-Jan-15 01:33N 51°32' E 002°15'1110.4
2017-Jan-15 00:33N 51°22' E 002°07'9 8.9
2017-Jan-14 23:33N 51°14' E 002°04'8 8.4
2017-Jan-14 22:33N 51°10' E 001°53'7 7.2
2017-Jan-14 21:33N 51°05' E 001°44'7 6.9
2017-Jan-14 20:33N 50°60' E 001°36'7 7.1
2017-Jan-14 19:33N 50°54' E 001°29'65 9.1
2017-Jan-14 12:25N 50°18' E 000°04'1012.0
2017-Jan-14 11:32N 50°16' W 000°12'2813.7
2017-Jan-14 09:29N 50°09' W 000°54'1314.4
2017-Jan-14 08:33N 50°05' W 001°14'1414.0
2017-Jan-14 07:33N 50°01' W 001°35'1312.7
2017-Jan-14 06:33N 49°58' W 001°55'140 9.2
2017-Jan-13 15:26N 48°59' W 005°10'6 6.7
2017-Jan-13 14:33N 48°55' W 005°16'9 8.7
2017-Jan-13 13:32N 48°50' W 005°27'  
2017-Jan-10 14:20N 39°23' W 009°51'8 9.9
2017-Jan-10 13:33N 39°15' W 009°50'1010.0
2017-Jan-10 12:33N 39°05' W 009°51'1010.1
2017-Jan-10 11:33N 38°55' W 009°50'1010.3
2017-Jan-10 10:33N 38°45' W 009°51'1110.6
2017-Jan-10 09:33N 38°34' W 009°49'1211.7
2017-Jan-10 08:33N 38°23' W 009°46'1110.1
2017-Jan-10 07:29N 38°12' W 009°43'910.2
2017-Jan-10 06:33N 38°03' W 009°39'1110.6
2017-Jan-10 05:33N 37°53' W 009°37'1110.6
2017-Jan-10 04:33N 37°42' W 009°34'1210.7
2017-Jan-10 03:24N 37°31' W 009°30'213 8.6
2017-Jan-09 02:28N 35°59' W 005°29'9 9.8
2017-Jan-09 01:33N 36°02' W 005°19'  

Dump ship's entire track history